Time;durP1;ratioP1;P1;durP2;ratioP2;P2;SDS_P1;SDS_P2;PMS_P1;PMS_P2;Temp;Humidity;BMP_temperature;BMP_pressure;BME280_temperature;BME280_humidity;BME280_pressure;Samples;Min_cycle;Max_cycle;Signal;HPM_P1;HPM_P2
2021/09/22 00:02:07;;;;;;;;;;;11.50;96.10;;;;;;5013283;28;19918;-68
2021/09/22 00:04:33;;;;;;;;;;;11.50;96.00;;;;;;5012165;28;20350;-69
2021/09/22 00:06:59;;;;;;;;;;;11.50;96.10;;;;;;5013289;28;19929;-68
2021/09/22 00:09:24;;;;;;;;;;;11.50;96.10;;;;;;5013242;28;20041;-69
2021/09/22 00:11:50;;;;;;;;;;;11.50;96.00;;;;;;5013229;28;19968;-69
2021/09/22 00:14:15;;;;;;;;;;;11.50;96.00;;;;;;4979799;28;20051;-68
2021/09/22 00:16:41;;;;;;;;;;;11.50;95.90;;;;;;5012484;28;20385;-68
2021/09/22 00:19:07;;;;;;;;;;;11.50;96.00;;;;;;5013139;28;19924;-68
2021/09/22 00:21:32;;;;;;;;;;;11.50;96.00;;;;;;5012121;28;19917;-68
2021/09/22 00:23:58;;;;;;;;;;;11.40;95.80;;;;;;5011889;28;19917;-69
2021/09/22 00:26:23;;;;;;;;;;;11.40;95.80;;;;;;5012799;28;19921;-69
2021/09/22 00:28:49;;;;;;;;;;;11.40;96.00;;;;;;4994686;28;19917;-68
2021/09/22 00:31:16;;;;;;;;;;;11.40;96.10;;;;;;5013195;28;19918;-69
2021/09/22 00:33:41;;;;;;;;;;;11.40;96.10;;;;;;5012536;28;19972;-69
2021/09/22 00:36:07;;;;;;;;;;;11.30;95.90;;;;;;5012709;28;19921;-69
2021/09/22 00:38:32;;;;;;;;;;;11.30;96.10;;;;;;5012149;28;19917;-69
2021/09/22 00:40:58;;;;;;;;;;;11.30;95.80;;;;;;5013084;28;20374;-69
2021/09/22 00:43:24;;;;;;;;;;;11.30;96.00;;;;;;5011706;28;19918;-69
2021/09/22 00:45:49;;;;;;;;;;;11.20;95.70;;;;;;5010715;28;19945;-69
2021/09/22 00:48:15;;;;;;;;;;;11.20;95.70;;;;;;4994624;28;19929;-68
2021/09/22 00:50:49;;;;;;;;;;;11.10;95.80;;;;;;5011273;28;19917;-69
2021/09/22 00:53:15;;;;;;;;;;;11.10;95.90;;;;;;4995080;28;19924;-69
2021/09/22 00:55:42;;;;;;;;;;;11.00;95.80;;;;;;4994520;28;20297;-68
2021/09/22 00:58:09;;;;;;;;;;;11.00;95.90;;;;;;4994664;28;19963;-68
2021/09/22 01:00:37;;;;;;;;;;;11.00;96.00;;;;;;5003855;28;20349;-69
2021/09/22 01:03:04;;;;;;;;;;;11.00;96.10;;;;;;4998535;28;19930;-69
2021/09/22 01:05:30;;;;;;;;;;;11.00;95.90;;;;;;4992119;28;20394;-69
2021/09/22 01:07:55;;;;;;;;;;;11.00;96.10;;;;;;4998237;28;20508;-69
2021/09/22 01:10:21;;;;;;;;;;;10.90;96.00;;;;;;4983799;28;19925;-69
2021/09/22 01:12:47;;;;;;;;;;;10.90;96.20;;;;;;5002796;28;19947;-69
2021/09/22 01:15:27;;;;;;;;;;;11.00;96.10;;;;;;4997503;28;19972;-69
2021/09/22 01:17:53;;;;;;;;;;;10.90;96.20;;;;;;4974966;28;20436;-69
2021/09/22 01:20:19;;;;;;;;;;;10.90;96.10;;;;;;4978464;28;19917;-69
2021/09/22 01:22:46;;;;;;;;;;;10.90;95.90;;;;;;4994713;28;20008;-72
2021/09/22 01:25:12;;;;;;;;;;;10.80;95.70;;;;;;4992601;28;20399;-68
2021/09/22 01:27:51;;;;;;;;;;;10.70;95.60;;;;;;4990570;28;19929;-68
2021/09/22 01:30:19;;;;;;;;;;;10.70;95.80;;;;;;4991393;28;19925;-69
2021/09/22 01:32:55;;;;;;;;;;;10.70;95.90;;;;;;4992248;28;19918;-69
2021/09/22 01:35:24;;;;;;;;;;;10.60;95.70;;;;;;4974627;28;19918;-69
2021/09/22 01:37:59;;;;;;;;;;;10.60;95.70;;;;;;4990420;28;19918;-69
2021/09/22 01:40:55;;;;;;;;;;;10.60;95.90;;;;;;4991048;28;19918;-69
2021/09/22 01:43:22;;;;;;;;;;;10.50;95.90;;;;;;4991026;28;19917;-68
2021/09/22 01:45:49;;;;;;;;;;;10.50;95.70;;;;;;4990638;28;19925;-69
2021/09/22 01:48:15;;;;;;;;;;;10.50;96.20;;;;;;4974001;28;19928;-69
2021/09/22 01:50:45;;;;;;;;;;;10.50;95.80;;;;;;4975170;28;19925;-69
2021/09/22 01:53:10;;;;;;;;;;;10.40;96.00;;;;;;4990530;28;20302;-69
2021/09/22 01:55:37;;;;;;;;;;;10.40;95.80;;;;;;4974388;28;20352;-69
2021/09/22 01:58:08;;;;;;;;;;;10.40;96.00;;;;;;4990028;28;19917;-69
2021/09/22 02:01:13;;;;;;;;;;;10.40;96.00;;;;;;4969692;28;20397;-69
2021/09/22 02:03:56;;;;;;;;;;;10.30;96.00;;;;;;4990795;28;20455;-69
2021/09/22 02:06:35;;;;;;;;;;;10.30;95.80;;;;;;4973682;28;19917;-69
2021/09/22 02:09:01;;;;;;;;;;;10.30;96.00;;;;;;4974176;28;19918;-69
2021/09/22 02:11:34;;;;;;;;;;;10.20;96.00;;;;;;4958918;28;19925;-69
2021/09/22 02:14:02;;;;;;;;;;;10.20;96.10;;;;;;4990694;28;19918;-68
2021/09/22 02:16:32;;;;;;;;;;;10.20;96.00;;;;;;4990233;28;19918;-69
2021/09/22 02:19:10;;;;;;;;;;;10.30;96.10;;;;;;4990571;28;19972;-69
2021/09/22 02:21:42;;;;;;;;;;;10.30;96.30;;;;;;4994223;28;19918;-69
2021/09/22 02:24:10;;;;;;;;;;;10.30;96.00;;;;;;4994179;28;19921;-69
2021/09/22 02:26:37;;;;;;;;;;;10.20;95.90;;;;;;4977447;28;19929;-69
2021/09/22 02:29:02;;;;;;;;;;;10.20;96.00;;;;;;4995374;28;19918;-69
2021/09/22 02:31:30;;;;;;;;;;;10.20;95.90;;;;;;4977783;28;19961;-69
2021/09/22 02:33:59;;;;;;;;;;;10.20;96.20;;;;;;4978298;28;19925;-69
2021/09/22 02:36:25;;;;;;;;;;;10.20;96.20;;;;;;4977383;28;19925;-69
2021/09/22 02:39:03;;;;;;;;;;;10.20;96.30;;;;;;4977881;28;19918;-69
2021/09/22 02:41:31;;;;;;;;;;;10.20;96.40;;;;;;4977963;28;19998;-69
2021/09/22 02:43:57;;;;;;;;;;;10.20;96.60;;;;;;4987467;28;20419;-69
2021/09/22 02:46:28;;;;;;;;;;;10.20;96.30;;;;;;4973384;28;19925;-69
2021/09/22 02:49:02;;;;;;;;;;;10.30;96.50;;;;;;4943238;28;19922;-69
2021/09/22 02:51:29;;;;;;;;;;;10.20;96.30;;;;;;4956003;28;20493;-69
2021/09/22 02:53:55;;;;;;;;;;;10.20;96.00;;;;;;4994189;28;20001;-69
2021/09/22 02:56:21;;;;;;;;;;;10.20;96.00;;;;;;4993698;28;19917;-69
2021/09/22 02:58:47;;;;;;;;;;;10.10;95.90;;;;;;4976886;28;20547;-69
2021/09/22 03:01:13;;;;;;;;;;;10.10;96.20;;;;;;4993644;28;19922;-69
2021/09/22 03:03:40;;;;;;;;;;;10.10;96.10;;;;;;4993351;28;19924;-69
2021/09/22 03:06:06;;;;;;;;;;;10.00;96.10;;;;;;4993671;28;20013;-69
2021/09/22 03:08:32;;;;;;;;;;;10.10;96.30;;;;;;4993936;28;19921;-69
2021/09/22 03:10:58;;;;;;;;;;;10.00;96.10;;;;;;4995572;28;19918;-69
2021/09/22 03:13:24;;;;;;;;;;;10.00;96.20;;;;;;4977632;28;20000;-69
2021/09/22 03:15:50;;;;;;;;;;;10.00;96.10;;;;;;4993391;28;20001;-69
2021/09/22 03:18:16;;;;;;;;;;;10.00;96.20;;;;;;4994162;28;20382;-69
2021/09/22 03:20:42;;;;;;;;;;;10.00;96.30;;;;;;4977115;28;19922;-69
2021/09/22 03:23:07;;;;;;;;;;;10.00;96.20;;;;;;4978064;28;19918;-69
2021/09/22 03:25:36;;;;;;;;;;;10.00;96.10;;;;;;4976995;28;19925;-69
2021/09/22 03:28:02;;;;;;;;;;;9.90;96.30;;;;;;4977731;28;19922;-69
2021/09/22 03:30:29;;;;;;;;;;;9.90;96.30;;;;;;4977226;28;20433;-69
2021/09/22 03:33:14;;;;;;;;;;;9.90;96.20;;;;;;4977704;28;19918;-69
2021/09/22 03:35:41;;;;;;;;;;;9.90;96.20;;;;;;4960699;28;19918;-69
2021/09/22 03:38:07;;;;;;;;;;;9.90;96.10;;;;;;4977739;28;20345;-69
2021/09/22 03:40:33;;;;;;;;;;;9.90;96.30;;;;;;4993380;28;20428;-69
2021/09/22 03:42:59;;;;;;;;;;;9.90;96.40;;;;;;4977604;28;19918;-69
2021/09/22 03:45:25;;;;;;;;;;;9.90;96.10;;;;;;4976199;28;20397;-69
2021/09/22 03:47:51;;;;;;;;;;;9.90;96.30;;;;;;4977388;28;19921;-69
2021/09/22 03:50:16;;;;;;;;;;;9.80;96.10;;;;;;4976929;28;19972;-69
2021/09/22 03:53:00;;;;;;;;;;;9.80;96.20;;;;;;4994928;28;19924;-69
2021/09/22 03:55:26;;;;;;;;;;;9.80;96.00;;;;;;4975987;28;19921;-69
2021/09/22 03:57:52;;;;;;;;;;;9.80;96.20;;;;;;4977397;28;19921;-69
2021/09/22 04:00:20;;;;;;;;;;;9.80;96.20;;;;;;4993779;28;19944;-69
2021/09/22 04:02:47;;;;;;;;;;;9.70;96.00;;;;;;4993467;28;19922;-69
2021/09/22 04:05:12;;;;;;;;;;;9.70;96.00;;;;;;4976862;28;20023;-70
2021/09/22 04:07:39;;;;;;;;;;;9.70;96.20;;;;;;4976834;28;19922;-69
2021/09/22 04:10:05;;;;;;;;;;;9.60;96.20;;;;;;4992847;28;19918;-69
2021/09/22 04:12:31;;;;;;;;;;;9.60;96.50;;;;;;4992746;28;20286;-69
2021/09/22 04:14:58;;;;;;;;;;;9.60;96.40;;;;;;4976104;28;19972;-69
2021/09/22 04:17:24;;;;;;;;;;;9.60;96.50;;;;;;4976534;28;19918;-69
2021/09/22 04:19:50;;;;;;;;;;;9.70;96.40;;;;;;4960984;28;19918;-69
2021/09/22 04:22:16;;;;;;;;;;;9.70;96.50;;;;;;4976557;28;19918;-69
2021/09/22 04:24:42;;;;;;;;;;;9.70;96.40;;;;;;4975995;28;19921;-69
2021/09/22 04:27:07;;;;;;;;;;;9.70;96.50;;;;;;4943547;23;19934;-65
2021/09/22 04:29:58;;;;;;;;;;;9.70;96.80;;;;;;4901868;29;20333;-65
2021/09/22 04:32:42;;;;;;;;;;;9.80;96.90;;;;;;4917688;29;19926;-65
2021/09/22 04:35:26;;;;;;;;;;;9.90;96.70;;;;;;4920194;29;19937;-65
2021/09/22 04:38:10;;;;;;;;;;;10.00;96.90;;;;;;4917255;29;20410;-65
2021/09/22 04:40:54;;;;;;;;;;;10.00;96.70;;;;;;4931541;29;20383;-66
2021/09/22 04:43:39;;;;;;;;;;;10.00;96.70;;;;;;4935366;29;19926;-65
2021/09/22 04:46:23;;;;;;;;;;;9.90;96.30;;;;;;4934712;29;19986;-65
2021/09/22 04:49:07;;;;;;;;;;;10.00;96.50;;;;;;4935905;29;19978;-65
2021/09/22 04:51:51;;;;;;;;;;;9.90;96.40;;;;;;4935602;29;19926;-64
2021/09/22 04:54:35;;;;;;;;;;;9.90;96.30;;;;;;4935443;29;19925;-66
2021/09/22 04:57:19;;;;;;;;;;;9.80;96.10;;;;;;4934306;29;19926;-65
2021/09/22 05:00:04;;;;;;;;;;;9.80;96.40;;;;;;4935145;29;20050;-65
2021/09/22 05:02:48;;;;;;;;;;;9.70;96.40;;;;;;4935817;29;19926;-65
2021/09/22 05:05:32;;;;;;;;;;;9.70;96.40;;;;;;4934482;29;20318;-65
2021/09/22 05:08:16;;;;;;;;;;;9.70;96.60;;;;;;4935089;29;19971;-65
2021/09/22 05:11:00;;;;;;;;;;;9.70;96.60;;;;;;4934652;29;20330;-65
2021/09/22 05:13:44;;;;;;;;;;;9.70;96.80;;;;;;4935332;29;19985;-65
2021/09/22 05:16:29;;;;;;;;;;;9.80;96.60;;;;;;4934360;29;20291;-65
2021/09/22 05:19:13;;;;;;;;;;;9.80;96.70;;;;;;4935041;29;19930;-66
2021/09/22 05:21:57;;;;;;;;;;;9.80;96.60;;;;;;4934765;29;19941;-65
2021/09/22 05:24:42;;;;;;;;;;;9.80;96.70;;;;;;4934235;29;19979;-67
2021/09/22 05:27:26;;;;;;;;;;;9.80;96.80;;;;;;4933831;29;19933;-66
2021/09/22 05:30:11;;;;;;;;;;;10.00;97.30;;;;;;4936648;29;19930;-66
2021/09/22 05:33:11;;;;;;;;;;;10.10;97.40;;;;;;4932938;29;19965;-65
2021/09/22 05:35:56;;;;;;;;;;;10.30;97.20;;;;;;4933534;29;19983;-65
2021/09/22 05:38:40;;;;;;;;;;;10.30;97.40;;;;;;4934738;29;19929;-65
2021/09/22 05:41:24;;;;;;;;;;;10.40;97.40;;;;;;4935245;29;20445;-65
2021/09/22 05:44:08;;;;;;;;;;;10.50;97.40;;;;;;4934691;29;19945;-65
2021/09/22 05:46:53;;;;;;;;;;;10.60;97.10;;;;;;4934700;29;19938;-65
2021/09/22 05:49:36;;;;;;;;;;;10.60;97.30;;;;;;4934354;29;19938;-66
2021/09/22 05:52:21;;;;;;;;;;;10.70;97.30;;;;;;4951805;29;19929;-66
2021/09/22 05:55:05;;;;;;;;;;;10.80;97.10;;;;;;4953450;28;19969;-66
2021/09/22 05:57:49;;;;;;;;;;;10.80;97.30;;;;;;4934184;29;19925;-65
2021/09/22 06:00:33;;;;;;;;;;;10.90;97.30;;;;;;4933945;29;20284;-65
2021/09/22 06:03:18;;;;;;;;;;;11.00;97.40;;;;;;4934529;29;20074;-66
2021/09/22 06:06:03;;;;;;;;;;;11.20;97.30;;;;;;4934089;29;20398;-65
2021/09/22 06:09:00;;;;;;;;;;;11.20;97.50;;;;;;4934303;29;19937;-65
2021/09/22 06:11:52;;;;;;;;;;;11.30;97.40;;;;;;4931682;29;20347;-66
2021/09/22 06:14:18;;;;;;;;;;;11.40;97.50;;;;;;4934398;29;19955;-65
2021/09/22 06:16:44;;;;;;;;;;;11.50;97.40;;;;;;4934091;29;19954;-66
2021/09/22 06:19:20;;;;;;;;;;;11.60;97.60;;;;;;4933203;29;19929;-65
2021/09/22 06:21:46;;;;;;;;;;;11.70;97.60;;;;;;4931545;29;19923;-65
2021/09/22 06:24:18;;;;;;;;;;;11.80;97.60;;;;;;4934671;29;19918;-66
2021/09/22 06:26:58;;;;;;;;;;;11.90;97.40;;;;;;4932161;29;20044;-65
2021/09/22 06:29:23;;;;;;;;;;;12.00;97.50;;;;;;4934553;29;20048;-67
2021/09/22 06:31:49;;;;;;;;;;;12.10;97.50;;;;;;4932962;29;19974;-67
2021/09/22 06:34:26;;;;;;;;;;;12.20;97.50;;;;;;4933007;29;19948;-65
2021/09/22 06:36:52;;;;;;;;;;;12.40;97.40;;;;;;4933675;29;19954;-66
2021/09/22 06:39:17;;;;;;;;;;;12.50;97.60;;;;;;4933247;29;19919;-66
2021/09/22 06:41:43;;;;;;;;;;;12.70;97.70;;;;;;4933033;29;19997;-65
2021/09/22 06:44:13;;;;;;;;;;;12.90;97.90;;;;;;4933137;29;20387;-65
2021/09/22 06:46:39;;;;;;;;;;;13.30;97.90;;;;;;4933676;29;19919;-65
2021/09/22 06:49:04;;;;;;;;;;;13.40;98.00;;;;;;4933201;29;19919;-65
2021/09/22 06:51:30;;;;;;;;;;;13.70;98.00;;;;;;4933388;29;19923;-66
2021/09/22 06:53:56;;;;;;;;;;;13.90;98.00;;;;;;4933156;29;20009;-66
2021/09/22 06:56:24;;;;;;;;;;;14.30;97.60;;;;;;4932954;29;20382;-66
2021/09/22 06:58:50;;;;;;;;;;;14.40;97.70;;;;;;4934283;29;20375;-66
2021/09/22 07:01:15;;;;;;;;;;;14.70;97.80;;;;;;4933899;29;20049;-66
2021/09/22 07:03:41;;;;;;;;;;;15.30;98.50;;;;;;4932780;29;19919;-66
2021/09/22 07:06:09;;;;;;;;;;;16.20;98.70;;;;;;4936228;28;19919;-65
2021/09/22 07:08:35;;;;;;;;;;;17.10;98.50;;;;;;4943530;28;19923;-66
2021/09/22 07:11:04;;;;;;;;;;;18.10;98.30;;;;;;4944911;29;20428;-66
2021/09/22 07:13:31;;;;;;;;;;;19.20;96.80;;;;;;4946022;29;19923;-67
2021/09/22 07:15:57;;;;;;;;;;;19.90;95.50;;;;;;4942420;29;19982;-67
2021/09/22 07:18:23;;;;;;;;;;;20.60;94.50;;;;;;4946414;29;20379;-67
2021/09/22 07:20:49;;;;;;;;;;;21.20;93.50;;;;;;4946124;29;20363;-67
2021/09/22 07:23:16;;;;;;;;;;;21.60;92.70;;;;;;4938947;29;19919;-66
2021/09/22 07:25:43;;;;;;;;;;;22.00;92.60;;;;;;4944434;28;19922;-66
2021/09/22 07:28:09;;;;;;;;;;;22.20;91.80;;;;;;4936279;29;19934;-66
2021/09/22 07:30:34;;;;;;;;;;;22.70;92.40;;;;;;4933619;29;19922;-67
2021/09/22 07:33:00;;;;;;;;;;;23.40;91.00;;;;;;4935724;29;19919;-67
2021/09/22 07:35:27;;;;;;;;;;;24.00;91.20;;;;;;4935078;29;19919;-66
2021/09/22 07:37:52;;;;;;;;;;;24.40;88.40;;;;;;4934408;29;19919;-65
2021/09/22 07:40:18;;;;;;;;;;;24.40;85.60;;;;;;4936546;29;19941;-65
2021/09/22 07:42:44;;;;;;;;;;;24.30;86.30;;;;;;4943948;29;19941;-64
2021/09/22 07:45:10;;;;;;;;;;;24.40;85.20;;;;;;4935013;29;20158;-66
2021/09/22 07:47:35;;;;;;;;;;;24.60;83.50;;;;;;4935034;29;19930;-65
2021/09/22 07:50:01;;;;;;;;;;;24.70;80.40;;;;;;4937191;29;19926;-66
2021/09/22 07:52:27;;;;;;;;;;;25.00;81.20;;;;;;4945459;29;19919;-66
2021/09/22 07:54:52;;;;;;;;;;;25.00;78.80;;;;;;4955320;29;20005;-66
2021/09/22 07:57:18;;;;;;;;;;;24.80;75.90;;;;;;4941028;28;19918;-65
2021/09/22 07:59:43;;;;;;;;;;;24.50;75.10;;;;;;4936693;29;20013;-65
2021/09/22 08:02:09;;;;;;;;;;;24.00;74.20;;;;;;4935682;29;20303;-66
2021/09/22 08:04:35;;;;;;;;;;;24.00;77.20;;;;;;4941427;29;19918;-66
2021/09/22 08:07:02;;;;;;;;;;;24.70;77.80;;;;;;4945437;29;19929;-64
2021/09/22 08:09:27;;;;;;;;;;;26.00;78.60;;;;;;4939691;29;19929;-67
2021/09/22 08:11:53;;;;;;;;;;;27.40;75.50;;;;;;4934642;29;20010;-66
2021/09/22 08:14:19;;;;;;;;;;;28.30;69.90;;;;;;4934803;29;20386;-66
2021/09/22 08:16:45;;;;;;;;;;;28.90;67.20;;;;;;4935265;29;20451;-66
2021/09/22 08:19:11;;;;;;;;;;;29.40;64.80;;;;;;4935478;29;19919;-65
2021/09/22 08:21:37;;;;;;;;;;;29.60;62.50;;;;;;4940039;29;19941;-66
2021/09/22 08:24:02;;;;;;;;;;;29.40;61.50;;;;;;4935668;29;19919;-65
2021/09/22 08:26:28;;;;;;;;;;;29.50;59.70;;;;;;4935158;29;20298;-66
2021/09/22 08:28:54;;;;;;;;;;;29.50;58.30;;;;;;4934521;29;19929;-65
2021/09/22 08:31:19;;;;;;;;;;;28.70;55.70;;;;;;4935277;29;19922;-65
2021/09/22 08:33:45;;;;;;;;;;;27.90;56.40;;;;;;4936328;29;19950;-65
2021/09/22 08:36:11;;;;;;;;;;;27.80;58.50;;;;;;4934276;29;19925;-66
2021/09/22 08:38:37;;;;;;;;;;;28.00;57.00;;;;;;4934215;29;20001;-64
2021/09/22 08:41:03;;;;;;;;;;;27.70;55.20;;;;;;4933485;29;20428;-65
2021/09/22 08:43:29;;;;;;;;;;;27.10;54.50;;;;;;4935513;29;19919;-64
2021/09/22 08:45:55;;;;;;;;;;;26.40;54.40;;;;;;4934220;29;19933;-64
2021/09/22 08:48:24;;;;;;;;;;;25.40;54.50;;;;;;4933390;29;19923;-67
2021/09/22 08:50:50;;;;;;;;;;;24.50;56.20;;;;;;4934498;29;20375;-64
2021/09/22 08:53:15;;;;;;;;;;;23.90;57.40;;;;;;4935448;29;19925;-64
2021/09/22 08:55:41;;;;;;;;;;;24.10;61.60;;;;;;4933926;29;19919;-65
2021/09/22 08:58:07;;;;;;;;;;;24.90;60.30;;;;;;4934188;29;20026;-65
2021/09/22 09:00:33;;;;;;;;;;;25.50;61.60;;;;;;4934464;29;19919;-65
2021/09/22 09:02:58;;;;;;;;;;;26.50;61.00;;;;;;4934188;29;19927;-63
2021/09/22 09:05:24;;;;;;;;;;;26.70;57.20;;;;;;4935239;29;19942;-65
2021/09/22 09:07:54;;;;;;;;;;;26.40;55.90;;;;;;4934416;29;19962;-66
2021/09/22 09:10:22;;;;;;;;;;;26.00;56.20;;;;;;4935456;29;19923;-65
2021/09/22 09:13:08;;;;;;;;;;;25.70;56.40;;;;;;4934734;29;19923;-65
2021/09/22 09:15:37;;;;;;;;;;;25.70;57.40;;;;;;4934966;29;19919;-65
2021/09/22 09:18:10;;;;;;;;;;;26.40;58.90;;;;;;4935030;29;19919;-66
2021/09/22 09:20:35;;;;;;;;;;;27.90;60.50;;;;;;4933339;29;20038;-66
2021/09/22 09:23:01;;;;;;;;;;;30.60;59.90;;;;;;4934648;29;20010;-64
2021/09/22 09:25:27;;;;;;;;;;;32.50;56.60;;;;;;4934419;29;19926;-66
2021/09/22 09:27:53;;;;;;;;;;;34.20;54.00;;;;;;4934211;29;19925;-66
2021/09/22 09:30:23;;;;;;;;;;;35.50;49.60;;;;;;4934330;29;19998;-67
2021/09/22 09:32:49;;;;;;;;;;;35.50;46.10;;;;;;4933587;29;20077;-64
2021/09/22 09:35:16;;;;;;;;;;;34.50;43.40;;;;;;4933214;29;20051;-65
2021/09/22 09:37:41;;;;;;;;;;;33.60;43.90;;;;;;4933500;29;19990;-65
2021/09/22 09:40:42;;;;;;;;;;;33.20;43.20;;;;;;4934464;29;19919;-66
2021/09/22 09:43:09;;;;;;;;;;;33.10;44.40;;;;;;4933589;29;19923;-65
2021/09/22 09:45:41;;;;;;;;;;;34.20;44.80;;;;;;4942974;28;19923;-66
2021/09/22 09:48:07;;;;;;;;;;;34.80;43.50;;;;;;4944097;29;19926;-64
2021/09/22 09:50:40;;;;;;;;;;;34.70;41.10;;;;;;4953755;28;20006;-66
2021/09/22 09:53:06;;;;;;;;;;;33.80;40.60;;;;;;4950887;28;19961;-66
2021/09/22 09:55:33;;;;;;;;;;;33.10;40.90;;;;;;4949697;28;20351;-64
2021/09/22 09:57:59;;;;;;;;;;;32.80;41.20;;;;;;4942813;29;20023;-66
2021/09/22 10:00:41;;;;;;;;;;;32.10;42.30;;;;;;4953601;28;19958;-66
2021/09/22 10:03:08;;;;;;;;;;;32.00;43.60;;;;;;4953097;28;19918;-65
2021/09/22 10:05:33;;;;;;;;;;;31.20;41.60;;;;;;4949191;28;19942;-64
2021/09/22 10:07:59;;;;;;;;;;;29.70;41.50;;;;;;4933263;29;20375;-65
2021/09/22 10:10:24;;;;;;;;;;;28.40;43.00;;;;;;4942503;28;19933;-64
2021/09/22 10:12:50;;;;;;;;;;;27.10;42.90;;;;;;4941084;29;19981;-65
2021/09/22 10:15:17;;;;;;;;;;;25.20;46.60;;;;;;4949423;28;20403;-65
2021/09/22 10:17:44;;;;;;;;;;;25.10;47.20;;;;;;4940964;29;20455;-66
2021/09/22 10:20:10;;;;;;;;;;;24.70;47.60;;;;;;4953150;28;19958;-64
2021/09/22 10:22:35;;;;;;;;;;;24.20;48.40;;;;;;4953572;29;19936;-64
2021/09/22 10:25:01;;;;;;;;;;;24.10;50.10;;;;;;4952603;28;20403;-64
2021/09/22 10:27:27;;;;;;;;;;;24.10;50.60;;;;;;4937819;29;20358;-65
2021/09/22 10:29:58;;;;;;;;;;;24.10;50.90;;;;;;4951662;28;19919;-66
2021/09/22 10:32:36;;;;;;;;;;;23.80;50.50;;;;;;4953387;29;20018;-64
2021/09/22 10:35:20;;;;;;;;;;;22.70;51.50;;;;;;4952525;28;19922;-65
2021/09/22 10:37:45;;;;;;;;;;;22.60;51.90;;;;;;4948479;29;20507;-65
2021/09/22 10:40:31;;;;;;;;;;;22.00;52.80;;;;;;4974627;23;20359;-62
2021/09/22 10:43:15;;;;;;;;;;;22.00;54.50;;;;;;4926430;29;20344;-62
2021/09/22 10:45:44;;;;;;;;;;;22.10;55.10;;;;;;4936483;29;19926;-63
2021/09/22 10:48:17;;;;;;;;;;;22.50;56.30;;;;;;4936974;29;19923;-62
2021/09/22 10:50:48;;;;;;;;;;;22.50;56.20;;;;;;4916882;29;19994;-62
2021/09/22 10:53:32;;;;;;;;;;;22.70;56.20;;;;;;4917392;29;19931;-62
2021/09/22 10:56:03;;;;;;;;;;;22.70;55.90;;;;;;4918312;29;19923;-63
2021/09/22 10:58:33;;;;;;;;;;;22.20;54.50;;;;;;4918659;29;19920;-62
2021/09/22 11:00:59;;;;;;;;;;;21.90;54.60;;;;;;4918627;29;19926;-62
2021/09/22 11:03:43;;;;;;;;;;;21.60;57.10;;;;;;4918192;29;19915;-62
2021/09/22 11:06:28;;;;;;;;;;;21.60;57.60;;;;;;4918154;29;19919;-62
2021/09/22 11:09:04;;;;;;;;;;;21.80;58.30;;;;;;4901054;29;19923;-62
2021/09/22 11:11:48;;;;;;;;;;;22.10;58.40;;;;;;4918375;29;20296;-62
2021/09/22 11:14:32;;;;;;;;;;;22.40;58.40;;;;;;4917963;29;20348;-62
2021/09/22 11:16:58;;;;;;;;;;;22.20;55.50;;;;;;4918507;29;20303;-62
2021/09/22 11:19:24;;;;;;;;;;;21.80;56.10;;;;;;4901487;29;19915;-62
2021/09/22 11:21:49;;;;;;;;;;;21.60;56.90;;;;;;4916079;29;19919;-63
2021/09/22 11:24:16;;;;;;;;;;;21.50;57.90;;;;;;4916647;29;19919;-62
2021/09/22 11:26:51;;;;;;;;;;;21.60;58.60;;;;;;4918295;29;19925;-62
2021/09/22 11:29:35;;;;;;;;;;;21.80;57.90;;;;;;4917315;29;19934;-62
2021/09/22 11:32:03;;;;;;;;;;;21.80;58.40;;;;;;4918214;29;20002;-62
2021/09/22 11:34:30;;;;;;;;;;;22.00;59.10;;;;;;4900772;29;19919;-62
2021/09/22 11:37:07;;;;;;;;;;;22.30;59.30;;;;;;4901162;29;19915;-62
2021/09/22 11:39:33;;;;;;;;;;;22.60;57.70;;;;;;4900169;29;19923;-62
2021/09/22 11:41:59;;;;;;;;;;;22.60;58.30;;;;;;4916831;29;20458;-62
2021/09/22 11:44:25;;;;;;;;;;;22.60;58.10;;;;;;4900322;29;19930;-62
2021/09/22 11:46:52;;;;;;;;;;;22.70;57.60;;;;;;4917940;29;20343;-62
2021/09/22 11:49:17;;;;;;;;;;;22.40;56.90;;;;;;4917355;29;19919;-62
2021/09/22 11:51:43;;;;;;;;;;;22.40;57.60;;;;;;4917395;29;19971;-62
2021/09/22 11:54:18;;;;;;;;;;;22.30;57.70;;;;;;4900640;29;19919;-62
2021/09/22 11:56:44;;;;;;;;;;;22.40;58.00;;;;;;4917367;29;19919;-62
2021/09/22 11:59:10;;;;;;;;;;;22.60;57.70;;;;;;4917155;29;19921;-62
2021/09/22 12:01:35;;;;;;;;;;;22.60;58.10;;;;;;4917373;29;19958;-62
2021/09/22 12:04:01;;;;;;;;;;;22.80;57.90;;;;;;4898884;29;19926;-62
2021/09/22 12:06:27;;;;;;;;;;;22.70;57.10;;;;;;4916776;29;19978;-62
2021/09/22 12:08:53;;;;;;;;;;;22.10;56.30;;;;;;4917081;29;20010;-62
2021/09/22 12:11:20;;;;;;;;;;;22.00;56.90;;;;;;4900086;29;20007;-62
2021/09/22 12:13:52;;;;;;;;;;;21.60;57.00;;;;;;4917616;29;19920;-62
2021/09/22 12:16:22;;;;;;;;;;;21.30;57.50;;;;;;4884083;29;19974;-62
2021/09/22 12:18:49;;;;;;;;;;;20.90;58.10;;;;;;4917324;29;20340;-62
2021/09/22 12:21:15;;;;;;;;;;;20.80;58.50;;;;;;4916921;29;19919;-62
2021/09/22 12:23:40;;;;;;;;;;;20.60;59.10;;;;;;4916973;29;20014;-62
2021/09/22 12:26:10;;;;;;;;;;;20.40;59.40;;;;;;4916940;29;19919;-62
2021/09/22 12:28:36;;;;;;;;;;;20.30;59.90;;;;;;4916126;29;20434;-62
2021/09/22 12:31:12;;;;;;;;;;;20.20;60.30;;;;;;4915969;29;19919;-62
2021/09/22 12:33:38;;;;;;;;;;;20.20;60.30;;;;;;4910835;29;19926;-61
2021/09/22 12:36:14;;;;;;;;;;;20.10;60.50;;;;;;4915256;29;19919;-61
2021/09/22 12:38:47;;;;;;;;;;;20.00;60.60;;;;;;4915392;29;19957;-62
2021/09/22 12:41:13;;;;;;;;;;;20.00;61.00;;;;;;4916643;29;19923;-62
2021/09/22 12:43:38;;;;;;;;;;;20.00;61.30;;;;;;4915464;29;20006;-61
2021/09/22 12:46:22;;;;;;;;;;;20.00;61.40;;;;;;4916701;29;19919;-62
2021/09/22 12:48:48;;;;;;;;;;;20.10;61.80;;;;;;4916485;29;19931;-61
2021/09/22 12:51:16;;;;;;;;;;;20.10;62.20;;;;;;4915216;29;19923;-64
2021/09/22 12:53:42;;;;;;;;;;;20.20;62.10;;;;;;4916343;29;20390;-64
2021/09/22 12:56:12;;;;;;;;;;;20.30;62.20;;;;;;4915075;29;19966;-64
2021/09/22 12:58:38;;;;;;;;;;;20.30;61.70;;;;;;4916156;29;20009;-64
2021/09/22 13:01:04;;;;;;;;;;;20.30;62.20;;;;;;4916629;29;20012;-64
2021/09/22 13:03:33;;;;;;;;;;;20.40;62.40;;;;;;4913970;29;19919;-65
2021/09/22 13:06:07;;;;;;;;;;;20.60;62.70;;;;;;4915407;29;19919;-64
2021/09/22 13:08:52;;;;;;;;;;;20.50;61.60;;;;;;4915839;29;20021;-64
2021/09/22 13:11:22;;;;;;;;;;;20.50;62.00;;;;;;4899379;29;19919;-65
2021/09/22 13:13:49;;;;;;;;;;;20.40;61.80;;;;;;4915827;29;20479;-64
2021/09/22 13:16:15;;;;;;;;;;;20.20;61.90;;;;;;4916041;29;19919;-65
2021/09/22 13:18:41;;;;;;;;;;;20.00;61.70;;;;;;4899041;29;19922;-64
2021/09/22 13:21:07;;;;;;;;;;;20.00;62.10;;;;;;4916299;29;19930;-65
2021/09/22 13:23:33;;;;;;;;;;;19.90;62.40;;;;;;4915799;29;20345;-64
2021/09/22 13:25:59;;;;;;;;;;;19.80;62.50;;;;;;4915935;29;19919;-64
2021/09/22 13:28:25;;;;;;;;;;;19.90;62.60;;;;;;4915763;29;20013;-65
2021/09/22 13:30:54;;;;;;;;;;;20.00;63.10;;;;;;4915858;29;19919;-64
2021/09/22 13:33:19;;;;;;;;;;;20.20;63.20;;;;;;4899204;29;19926;-64
2021/09/22 13:35:45;;;;;;;;;;;20.30;63.00;;;;;;4914328;29;19998;-64
2021/09/22 13:38:11;;;;;;;;;;;20.40;62.60;;;;;;4916155;29;19946;-64
2021/09/22 13:40:36;;;;;;;;;;;20.40;62.10;;;;;;4913673;29;19923;-65
2021/09/22 13:43:03;;;;;;;;;;;20.50;62.20;;;;;;4914628;29;19919;-64
2021/09/22 13:45:29;;;;;;;;;;;20.50;61.90;;;;;;4914944;29;19919;-64
2021/09/22 13:47:56;;;;;;;;;;;20.40;61.80;;;;;;4914744;29;20014;-64
2021/09/22 13:50:21;;;;;;;;;;;20.40;61.70;;;;;;4914785;29;19919;-63
2021/09/22 13:52:47;;;;;;;;;;;20.40;62.30;;;;;;4899076;29;19923;-64
2021/09/22 13:55:12;;;;;;;;;;;20.20;62.30;;;;;;4898463;29;20591;-64
2021/09/22 13:57:38;;;;;;;;;;;20.10;62.30;;;;;;4915395;29;19974;-64
2021/09/22 14:00:04;;;;;;;;;;;20.00;62.10;;;;;;4898389;29;19920;-64
2021/09/22 14:02:37;;;;;;;;;;;20.00;62.80;;;;;;4915254;29;20261;-64
2021/09/22 14:05:02;;;;;;;;;;;20.00;63.00;;;;;;4898218;29;19925;-66
2021/09/22 14:07:28;;;;;;;;;;;19.90;62.70;;;;;;4914959;29;19929;-64
2021/09/22 14:09:53;;;;;;;;;;;19.90;62.40;;;;;;4898434;29;19947;-66
2021/09/22 14:12:19;;;;;;;;;;;19.80;62.80;;;;;;4897108;29;19949;-66
2021/09/22 14:14:45;;;;;;;;;;;19.80;62.90;;;;;;4915426;29;20295;-66
2021/09/22 14:17:11;;;;;;;;;;;19.80;62.90;;;;;;4915388;29;19947;-66
2021/09/22 14:19:36;;;;;;;;;;;20.00;62.90;;;;;;4914720;29;20288;-63
2021/09/22 14:22:02;;;;;;;;;;;20.00;63.70;;;;;;4915357;29;19944;-63
2021/09/22 14:24:28;;;;;;;;;;;20.20;63.70;;;;;;4913576;29;19967;-64
2021/09/22 14:26:53;;;;;;;;;;;20.30;63.20;;;;;;4915255;29;19919;-63
2021/09/22 14:29:19;;;;;;;;;;;20.70;63.20;;;;;;4913507;29;20010;-65
2021/09/22 14:31:44;;;;;;;;;;;20.80;63.80;;;;;;4898514;29;19919;-65
2021/09/22 14:34:10;;;;;;;;;;;21.00;63.40;;;;;;4882443;29;19966;-65
2021/09/22 14:36:35;;;;;;;;;;;20.90;62.10;;;;;;4915214;29;19935;-65